createdAt,value
2022-08-23T00:01:34.821Z,18.99
2022-08-23T00:04:11.616Z,19.04
2022-08-23T00:06:39.970Z,19.07
2022-08-23T00:09:07.354Z,19.09
2022-08-23T00:11:45.410Z,19.11
2022-08-23T00:14:17.928Z,19.11
2022-08-23T00:16:45.739Z,19.08
2022-08-23T00:19:16.838Z,19.09
2022-08-23T00:21:45.649Z,19.07
2022-08-23T00:24:14.214Z,19.12
2022-08-23T00:26:56.417Z,19.13
2022-08-23T00:29:26.324Z,19.10
2022-08-23T00:31:54.055Z,19.08
2022-08-23T00:34:22.132Z,19.10
2022-08-23T00:36:50.260Z,19.08
2022-08-23T00:39:18.851Z,19.10
2022-08-23T00:41:47.746Z,19.10
2022-08-23T00:44:52.482Z,19.12
2022-08-23T00:47:40.100Z,19.10
2022-08-23T00:50:23.616Z,19.09
2022-08-23T00:53:03.767Z,19.09
2022-08-23T00:55:32.739Z,19.03
2022-08-23T00:58:00.639Z,18.90
2022-08-23T01:00:28.985Z,19.06
2022-08-23T01:02:57.984Z,19.07
2022-08-23T01:05:31.549Z,19.03
2022-08-23T01:08:00.323Z,19.01
2022-08-23T01:10:33.960Z,18.99
2022-08-23T01:13:20.070Z,18.96
2022-08-23T01:15:51.961Z,18.98
2022-08-23T01:18:23.908Z,18.91
2022-08-23T01:20:57.142Z,18.99
2022-08-23T01:23:50.151Z,18.99
2022-08-23T01:26:21.763Z,18.90
2022-08-23T01:28:50.691Z,18.99
2022-08-23T01:31:18.862Z,18.98
2022-08-23T01:33:56.952Z,18.98
2022-08-23T01:36:24.595Z,18.99
2022-08-23T01:38:52.819Z,18.98
2022-08-23T01:41:20.272Z,18.98
2022-08-23T01:43:47.858Z,19.03
2022-08-23T01:46:20.435Z,19.01
2022-08-23T01:48:49.223Z,18.99
2022-08-23T01:51:19.050Z,19.04
2022-08-23T01:53:46.891Z,19.03
2022-08-23T01:56:20.134Z,19.03
2022-08-23T01:58:56.941Z,19.06
2022-08-23T02:01:30.034Z,19.07
2022-08-23T02:04:00.793Z,19.04
2022-08-23T02:06:32.926Z,19.04
2022-08-23T02:09:01.457Z,19.08
2022-08-23T02:11:40.718Z,19.09
2022-08-23T02:14:12.217Z,19.09
2022-08-23T02:17:04.573Z,19.11
2022-08-23T02:19:34.618Z,19.08
2022-08-23T02:22:03.650Z,19.10
2022-08-23T02:24:31.950Z,19.10
2022-08-23T02:27:04.318Z,19.08
2022-08-23T02:29:39.374Z,19.07
2022-08-23T02:32:10.299Z,19.06
2022-08-23T02:34:40.282Z,19.06
2022-08-23T02:37:10.220Z,19.06
2022-08-23T02:39:38.867Z,19.04
2022-08-23T02:42:08.139Z,18.86
2022-08-23T02:44:40.939Z,18.91
2022-08-23T02:47:09.192Z,19.01
2022-08-23T02:49:38.689Z,19.04
2022-08-23T02:52:07.379Z,19.04
2022-08-23T02:54:36.180Z,19.03
2022-08-23T02:57:03.750Z,19.00
2022-08-23T02:59:31.782Z,18.99
2022-08-23T03:01:59.372Z,18.85
2022-08-23T03:04:31.788Z,18.90
2022-08-23T03:06:58.859Z,18.95
2022-08-23T03:09:26.302Z,18.93
2022-08-23T03:11:53.562Z,18.95
2022-08-23T03:14:22.381Z,18.93
2022-08-23T03:16:49.831Z,18.94
2022-08-23T03:19:17.397Z,18.95
2022-08-23T03:21:45.336Z,18.97
2022-08-23T03:24:15.550Z,18.90
2022-08-23T03:26:44.478Z,18.95
2022-08-23T03:29:12.938Z,18.94
2022-08-23T03:31:57.181Z,18.97
2022-08-23T03:34:26.075Z,18.96
2022-08-23T03:36:54.125Z,18.97
2022-08-23T03:39:21.260Z,18.94
2022-08-23T03:41:48.702Z,18.98
2022-08-23T03:44:16.045Z,18.94
2022-08-23T03:46:44.593Z,18.99
2022-08-23T03:49:12.144Z,19.01
2022-08-23T03:51:51.330Z,18.99
2022-08-23T03:54:18.492Z,18.96
2022-08-23T03:56:55.856Z,18.97
2022-08-23T03:59:24.309Z,18.98
2022-08-23T04:01:51.577Z,18.98
2022-08-23T04:04:18.757Z,18.99
2022-08-23T04:07:06.019Z,18.99
2022-08-23T04:09:34.071Z,18.99
2022-08-23T04:12:01.412Z,18.99
2022-08-23T04:14:29.266Z,18.95
2022-08-23T04:16:56.816Z,18.98
2022-08-23T04:19:24.116Z,18.94
2022-08-23T04:22:04.211Z,19.01
2022-08-23T04:24:39.940Z,18.95
2022-08-23T04:27:07.420Z,19.00
2022-08-23T04:29:35.122Z,19.02
2022-08-23T04:32:07.614Z,19.02
2022-08-23T04:34:40.391Z,19.03
2022-08-23T04:37:09.675Z,19.06
2022-08-23T04:39:59.124Z,18.96
2022-08-23T04:42:32.101Z,19.10
2022-08-23T04:45:00.078Z,19.11
2022-08-23T04:47:27.399Z,19.14
2022-08-23T04:49:57.364Z,19.16
2022-08-23T04:52:24.660Z,19.17
2022-08-23T04:54:52.704Z,19.20
2022-08-23T04:57:43.681Z,19.23
2022-08-23T05:00:15.595Z,19.17
2022-08-23T05:02:50.039Z,19.16
2022-08-23T05:05:17.699Z,19.29
2022-08-23T05:07:45.724Z,19.38
2022-08-23T05:10:16.314Z,19.42
2022-08-23T05:12:48.720Z,19.45
2022-08-23T05:15:18.072Z,19.48
2022-08-23T05:17:48.504Z,19.55
2022-08-23T05:20:17.094Z,19.56
2022-08-23T05:22:44.703Z,19.62
2022-08-23T05:25:58.959Z,19.69
2022-08-23T05:28:33.572Z,19.77
2022-08-23T05:31:06.196Z,19.82
2022-08-23T05:33:45.671Z,19.83
2022-08-23T05:36:15.360Z,19.82
2022-08-23T05:38:43.727Z,19.84
2022-08-23T05:41:12.525Z,19.84
2022-08-23T05:43:40.216Z,19.79
2022-08-23T05:46:13.247Z,19.82
2022-08-23T05:48:47.388Z,19.91
2022-08-23T05:51:24.142Z,19.95
2022-08-23T05:53:53.722Z,20.01
2022-08-23T05:56:33.657Z,20.08
2022-08-23T05:59:05.982Z,20.09
2022-08-23T06:01:41.016Z,20.11
2022-08-23T06:04:19.675Z,20.19
2022-08-23T06:06:48.778Z,20.19
2022-08-23T06:09:18.316Z,20.25
2022-08-23T06:11:47.211Z,20.28
2022-08-23T06:14:15.912Z,20.32
2022-08-23T06:16:46.826Z,20.41
2022-08-23T06:19:18.185Z,20.41
2022-08-23T06:22:03.993Z,20.45
2022-08-23T06:24:36.464Z,20.46
2022-08-23T06:27:13.281Z,20.55
2022-08-23T06:29:41.470Z,20.58
2022-08-23T06:32:37.891Z,20.65
2022-08-23T06:35:37.953Z,20.66
2022-08-23T06:38:15.773Z,20.66
2022-08-23T06:40:51.960Z,20.75
2022-08-23T06:43:43.178Z,20.83
2022-08-23T06:46:38.740Z,20.88
2022-08-23T06:49:08.151Z,20.92
2022-08-23T06:51:42.159Z,20.95
2022-08-23T06:54:20.783Z,20.96
2022-08-23T06:56:48.818Z,21.00
2022-08-23T06:59:20.350Z,20.99
2022-08-23T07:02:14.948Z,21.07
2022-08-23T07:04:57.633Z,21.22
2022-08-23T07:08:04.142Z,21.36
2022-08-23T07:10:31.398Z,21.54
2022-08-23T07:12:58.685Z,21.63
2022-08-23T07:15:25.831Z,21.68
2022-08-23T07:17:53.274Z,21.68
2022-08-23T07:20:20.691Z,21.77
2022-08-23T07:22:47.935Z,21.76
2022-08-23T07:25:15.599Z,21.74
2022-08-23T07:27:48.527Z,21.78
2022-08-23T07:30:19.425Z,21.76
2022-08-23T07:32:46.953Z,21.76
2022-08-23T07:35:39.626Z,21.80
2022-08-23T07:38:07.550Z,21.80
2022-08-23T07:40:39.041Z,21.77
2022-08-23T07:43:08.515Z,21.76
2022-08-23T07:45:39.564Z,21.76
2022-08-23T07:48:10.100Z,21.74
2022-08-23T07:51:04.732Z,21.75
2022-08-23T07:53:37.889Z,21.76
2022-08-23T07:56:09.841Z,21.72
2022-08-23T07:58:55.614Z,21.94
2022-08-23T08:01:55.315Z,22.08
2022-08-23T08:04:24.727Z,22.16
2022-08-23T08:07:10.885Z,22.31
2022-08-23T08:09:43.874Z,22.36
2022-08-23T08:12:12.111Z,22.37
2022-08-23T08:14:42.676Z,22.37
2022-08-23T08:17:11.969Z,22.31
2022-08-23T08:19:59.021Z,22.28
2022-08-23T08:22:47.563Z,22.30
2022-08-23T08:25:15.771Z,22.29
2022-08-23T08:27:43.639Z,22.25
2022-08-23T08:30:12.249Z,22.23
2022-08-23T08:32:46.976Z,22.24
2022-08-23T08:35:14.700Z,22.26
2022-08-23T08:37:42.473Z,22.25
2022-08-23T08:40:10.140Z,22.21
2022-08-23T08:42:40.824Z,22.22
2022-08-23T08:45:12.390Z,22.25
2022-08-23T08:47:45.049Z,22.26
2022-08-23T08:50:24.466Z,22.29
2022-08-23T08:53:16.980Z,22.27
2022-08-23T08:56:34.793Z,22.30
2022-08-23T08:59:19.469Z,22.34
2022-08-23T09:01:48.674Z,22.33
2022-08-23T09:04:22.757Z,22.29
2022-08-23T09:07:08.122Z,22.28
2022-08-23T09:10:09.824Z,22.28
2022-08-23T09:13:21.815Z,22.33
2022-08-23T09:16:05.340Z,22.33
2022-08-23T09:18:35.833Z,22.38
2022-08-23T09:21:07.224Z,22.40
2022-08-23T09:23:42.674Z,22.38
2022-08-23T09:26:17.535Z,22.37
2022-08-23T09:28:47.970Z,22.39
2022-08-23T09:31:51.028Z,22.42
2022-08-23T09:34:24.216Z,22.42
2022-08-23T09:37:16.573Z,22.42
2022-08-23T09:39:49.849Z,22.43
2022-08-23T09:42:40.601Z,22.41
2022-08-23T09:45:28.874Z,22.44
2022-08-23T09:47:58.413Z,22.43
2022-08-23T09:50:42.473Z,22.44
2022-08-23T09:53:13.064Z,22.46
2022-08-23T09:55:54.946Z,22.40
2022-08-23T09:58:36.485Z,22.44
2022-08-23T10:01:20.463Z,22.43
2022-08-23T10:04:23.334Z,22.46
2022-08-23T10:06:53.242Z,22.49
2022-08-23T10:09:28.947Z,22.52
2022-08-23T10:11:58.864Z,22.53
2022-08-23T10:14:30.761Z,22.54
2022-08-23T10:17:17.392Z,22.52
2022-08-23T10:19:52.581Z,22.48
2022-08-23T10:22:27.158Z,22.50
2022-08-23T10:25:22.324Z,22.48
2022-08-23T10:28:21.157Z,22.48
2022-08-23T10:31:01.187Z,22.43
2022-08-23T10:34:18.386Z,22.47
2022-08-23T10:36:58.298Z,22.48
2022-08-23T10:39:30.503Z,22.46
2022-08-23T10:42:24.058Z,22.50
2022-08-23T10:47:44.624Z,22.51
2022-08-23T10:50:22.225Z,22.52
2022-08-23T10:53:13.777Z,22.53
2022-08-23T10:56:06.366Z,22.57
2022-08-23T10:58:53.766Z,22.58
2022-08-23T11:01:26.611Z,22.60
2022-08-23T11:04:03.841Z,22.57
2022-08-23T11:06:48.242Z,22.59
2022-08-23T11:09:15.466Z,22.60
2022-08-23T11:12:14.743Z,22.56
2022-08-23T11:14:58.792Z,22.55
2022-08-23T11:17:41.304Z,22.53
2022-08-23T11:20:12.393Z,22.52
2022-08-23T11:22:57.878Z,22.49
2022-08-23T11:25:25.108Z,22.48
2022-08-23T11:28:24.080Z,22.41
2022-08-23T11:31:24.867Z,22.42
2022-08-23T11:34:01.249Z,22.40
2022-08-23T11:36:30.379Z,22.37
2022-08-23T11:38:57.547Z,22.35
2022-08-23T11:41:31.665Z,22.34
2022-08-23T11:44:07.739Z,22.33
2022-08-23T11:46:48.803Z,22.32
2022-08-23T11:49:17.524Z,22.30
2022-08-23T11:51:50.704Z,22.28
2022-08-23T11:54:52.251Z,22.26
2022-08-23T11:57:29.399Z,22.27
2022-08-23T11:59:59.396Z,22.30
2022-08-23T12:02:36.899Z,22.34
2022-08-23T12:05:23.075Z,22.34
2022-08-23T12:08:06.022Z,22.37
2022-08-23T12:11:06.128Z,22.41
2022-08-23T12:13:46.848Z,22.44
2022-08-23T12:16:29.268Z,22.50
2022-08-23T12:19:01.622Z,22.53
2022-08-23T12:21:44.263Z,22.52
2022-08-23T12:24:23.092Z,22.55
2022-08-23T12:27:08.211Z,22.55
2022-08-23T12:30:16.962Z,22.57
2022-08-23T12:33:08.632Z,22.57
2022-08-23T12:36:01.573Z,22.53
2022-08-23T12:39:09.019Z,22.57
2022-08-23T12:41:52.387Z,22.56
2022-08-23T12:44:21.966Z,22.55
2022-08-23T12:46:50.475Z,22.54
2022-08-23T12:49:36.468Z,22.47
2022-08-23T12:52:12.071Z,22.50
2022-08-23T12:54:43.198Z,22.43
2022-08-23T12:57:19.502Z,22.43
2022-08-23T13:00:16.550Z,22.40
2022-08-23T13:03:18.481Z,22.38
2022-08-23T13:05:56.598Z,22.38
2022-08-23T13:08:39.826Z,22.40
2022-08-23T13:11:09.859Z,22.41
2022-08-23T13:13:42.774Z,22.42
2022-08-23T13:16:31.710Z,22.47
2022-08-23T13:19:16.668Z,22.46
2022-08-23T13:21:44.431Z,22.51
2022-08-23T13:24:38.532Z,22.56
2022-08-23T13:27:23.080Z,22.68
2022-08-23T13:29:59.525Z,22.84
2022-08-23T13:32:34.941Z,23.00
2022-08-23T13:35:31.647Z,23.18
2022-08-23T13:38:20.977Z,23.34
2022-08-23T13:41:03.141Z,23.52
2022-08-23T13:43:38.190Z,23.64
2022-08-23T13:46:13.084Z,23.74
2022-08-23T13:48:47.941Z,23.79
2022-08-23T13:51:33.635Z,23.94
2022-08-23T13:54:23.021Z,23.99
2022-08-23T13:56:53.377Z,23.99
2022-08-23T13:59:36.461Z,24.04
2022-08-23T14:02:08.380Z,24.10
2022-08-23T14:04:35.629Z,24.12
2022-08-23T14:07:03.193Z,24.14
2022-08-23T14:09:30.314Z,24.20
2022-08-23T14:11:59.807Z,24.28
2022-08-23T14:14:31.799Z,24.30
2022-08-23T14:17:02.623Z,24.32
2022-08-23T14:22:19.453Z,24.32
2022-08-23T14:24:46.717Z,24.32
2022-08-23T14:27:14.265Z,24.35
2022-08-23T14:29:41.529Z,24.38
2022-08-23T14:32:08.738Z,24.43
2022-08-23T14:34:36.074Z,24.49
2022-08-23T14:39:50.842Z,24.49
2022-08-23T14:42:22.173Z,24.52
2022-08-23T14:44:49.665Z,24.55
2022-08-23T14:47:17.325Z,24.58
2022-08-23T14:49:44.565Z,24.60
2022-08-23T14:52:14.070Z,24.61
2022-08-23T14:54:41.499Z,24.59
2022-08-23T14:57:08.722Z,24.58
2022-08-23T14:59:35.896Z,24.54
2022-08-23T15:02:05.149Z,24.52
2022-08-23T15:04:34.553Z,24.53
2022-08-23T15:07:19.920Z,24.55
2022-08-23T15:09:52.104Z,24.53
2022-08-23T15:15:12.322Z,24.46
2022-08-23T15:17:47.891Z,24.45
2022-08-23T15:20:15.598Z,24.47
2022-08-23T15:22:44.589Z,24.47
2022-08-23T15:25:13.840Z,24.47
2022-08-23T15:27:42.235Z,24.45
2022-08-23T15:30:10.891Z,24.45
2022-08-23T15:32:38.063Z,24.40
2022-08-23T15:35:07.575Z,24.34
2022-08-23T15:37:35.584Z,24.30
2022-08-23T15:40:04.129Z,24.23
2022-08-23T15:42:31.339Z,24.24
2022-08-23T15:44:58.728Z,24.23
2022-08-23T15:47:30.152Z,24.20
2022-08-23T15:49:58.828Z,24.22
2022-08-23T15:52:27.295Z,24.21
2022-08-23T15:54:55.261Z,24.20
2022-08-23T15:57:28.005Z,24.16
2022-08-23T15:59:57.415Z,24.13
2022-08-23T16:02:25.007Z,24.14
2022-08-23T16:04:52.126Z,24.11
2022-08-23T16:07:19.249Z,24.14
2022-08-23T16:09:47.385Z,24.14
2022-08-23T16:12:14.738Z,24.10
2022-08-23T16:14:41.835Z,24.12
2022-08-23T16:17:09.781Z,24.12
2022-08-23T16:19:37.082Z,24.09
2022-08-23T16:22:04.413Z,24.05
2022-08-23T16:24:31.642Z,24.01
2022-08-23T16:26:58.891Z,23.98
2022-08-23T16:29:28.838Z,23.89
2022-08-23T16:31:55.990Z,23.90
2022-08-23T16:34:23.512Z,23.91
2022-08-23T16:37:04.967Z,23.89
2022-08-23T16:39:34.621Z,23.87
2022-08-23T16:42:04.966Z,23.85
2022-08-23T16:44:33.626Z,23.86
2022-08-23T16:47:04.190Z,23.87
2022-08-23T16:49:34.924Z,23.87
2022-08-23T16:52:02.890Z,23.89
2022-08-23T16:54:30.200Z,23.88
2022-08-23T16:56:57.343Z,23.88
2022-08-23T16:59:25.523Z,23.87
2022-08-23T17:02:05.868Z,23.87
2022-08-23T17:04:38.432Z,23.83
2022-08-23T17:07:06.589Z,23.84
2022-08-23T17:09:33.756Z,23.84
2022-08-23T17:12:01.232Z,23.76
2022-08-23T17:14:28.661Z,23.72
2022-08-23T17:16:55.831Z,23.76
2022-08-23T17:19:23.153Z,23.76
2022-08-23T17:21:50.354Z,23.73
2022-08-23T17:24:17.612Z,23.75
2022-08-23T17:26:44.784Z,23.74
2022-08-23T17:29:12.474Z,23.72
2022-08-23T17:31:40.229Z,23.71
2022-08-23T17:34:07.843Z,23.68
2022-08-23T17:36:47.985Z,23.65
2022-08-23T17:39:18.662Z,23.61
2022-08-23T17:41:45.908Z,23.61
2022-08-23T17:44:15.593Z,23.59
2022-08-23T17:46:45.090Z,23.56
2022-08-23T17:49:14.400Z,23.54
2022-08-23T17:51:41.819Z,23.52
2022-08-23T17:54:10.264Z,23.49
2022-08-23T17:56:38.225Z,23.42
2022-08-23T17:59:08.831Z,23.34
2022-08-23T18:01:37.437Z,23.32
2022-08-23T18:04:06.580Z,23.24
2022-08-23T18:06:36.703Z,23.25
2022-08-23T18:09:06.560Z,23.18
2022-08-23T18:11:35.068Z,23.17
2022-08-23T18:14:02.305Z,23.14
2022-08-23T18:16:34.649Z,23.12
2022-08-23T18:19:04.129Z,23.08
2022-08-23T18:21:31.653Z,23.04
2022-08-23T18:23:59.402Z,22.97
2022-08-23T18:26:46.267Z,22.94
2022-08-23T18:29:14.743Z,22.84
2022-08-23T18:31:44.082Z,22.83
2022-08-23T18:34:12.587Z,22.78
2022-08-23T18:36:40.214Z,22.71
2022-08-23T18:39:09.024Z,22.68
2022-08-23T18:41:36.263Z,22.63
2022-08-23T18:44:05.540Z,22.60
2022-08-23T18:46:37.751Z,22.56
2022-08-23T18:49:05.825Z,22.54
2022-08-23T18:51:33.134Z,22.48
2022-08-23T18:54:00.829Z,22.49
2022-08-23T18:56:28.200Z,22.46
2022-08-23T18:58:55.430Z,22.44
2022-08-23T19:01:33.664Z,22.40
2022-08-23T19:04:02.803Z,22.33
2022-08-23T19:06:30.824Z,22.38
2022-08-23T19:08:58.109Z,22.37
2022-08-23T19:11:25.383Z,22.36
2022-08-23T19:13:52.457Z,22.37
2022-08-23T19:16:21.968Z,22.35
2022-08-23T19:18:50.886Z,22.40
2022-08-23T19:21:21.595Z,22.33
2022-08-23T19:23:51.191Z,22.38
2022-08-23T19:26:22.191Z,22.30
2022-08-23T19:28:49.872Z,22.36
2022-08-23T19:31:17.412Z,22.39
2022-08-23T19:33:45.349Z,22.41
2022-08-23T19:36:35.808Z,22.42
2022-08-23T19:39:00.576Z,22.44
2022-08-23T19:41:27.780Z,22.44
2022-08-23T19:43:55.907Z,22.43
2022-08-23T19:46:23.255Z,22.42
2022-08-23T19:48:52.382Z,22.40
2022-08-23T19:51:21.559Z,22.40
2022-08-23T19:54:06.947Z,22.38
2022-08-23T19:56:39.261Z,22.33
2022-08-23T19:59:09.162Z,22.30
2022-08-23T20:01:37.154Z,22.34
2022-08-23T20:04:05.435Z,22.34
2022-08-23T20:06:32.896Z,22.32
2022-08-23T20:09:00.209Z,22.30
2022-08-23T20:11:32.206Z,22.21
2022-08-23T20:14:01.496Z,22.22
2022-08-23T20:16:32.945Z,22.18
2022-08-23T20:22:57.230Z,22.07
2022-08-23T20:25:24.643Z,21.94
2022-08-23T20:27:52.087Z,22.00
2022-08-23T20:30:19.270Z,21.99
2022-08-23T20:32:46.433Z,21.85
2022-08-23T20:35:13.898Z,21.87
2022-08-23T20:37:41.172Z,21.82
2022-08-23T20:40:12.470Z,21.74
2022-08-23T20:42:39.917Z,21.65
2022-08-23T20:45:07.725Z,21.59
2022-08-23T20:47:35.671Z,21.54
2022-08-23T20:50:03.155Z,21.54
2022-08-23T20:52:34.425Z,21.46
2022-08-23T20:55:02.416Z,21.47
2022-08-23T20:57:32.018Z,21.44
2022-08-23T21:00:07.453Z,21.44
2022-08-23T21:02:34.982Z,21.41
2022-08-23T21:05:04.734Z,21.39
2022-08-23T21:07:33.852Z,21.32
2022-08-23T21:10:01.088Z,21.41
2022-08-23T21:12:28.683Z,21.46
2022-08-23T21:14:57.027Z,21.43
2022-08-23T21:17:24.399Z,21.50
2022-08-23T21:19:51.592Z,21.50
2022-08-23T21:22:18.823Z,21.51
2022-08-23T21:24:46.943Z,21.54
2022-08-23T21:27:15.877Z,21.54
2022-08-23T21:29:42.990Z,21.54
2022-08-23T21:32:10.298Z,21.55
2022-08-23T21:34:37.459Z,21.54
2022-08-23T21:37:04.717Z,21.58
2022-08-23T21:39:31.885Z,21.59
2022-08-23T21:41:59.200Z,21.58
2022-08-23T21:44:26.603Z,21.60
2022-08-23T21:46:53.788Z,21.59
2022-08-23T21:49:23.637Z,21.56
2022-08-23T21:51:51.559Z,21.54
2022-08-23T21:54:18.787Z,21.50
2022-08-23T21:56:46.194Z,21.46
2022-08-23T21:59:16.954Z,21.46
2022-08-23T22:01:45.393Z,21.44
2022-08-23T22:04:14.709Z,21.42
2022-08-23T22:06:44.251Z,21.36
2022-08-23T22:09:14.199Z,21.37
2022-08-23T22:11:43.336Z,21.30
2022-08-23T22:14:20.425Z,21.28
2022-08-23T22:16:49.626Z,21.20
2022-08-23T22:19:22.502Z,21.19
2022-08-23T22:21:51.583Z,21.13
2022-08-23T22:24:24.666Z,21.14
2022-08-23T22:26:53.286Z,21.14
2022-08-23T22:29:20.616Z,21.11
2022-08-23T22:31:48.541Z,21.08
2022-08-23T22:34:16.084Z,20.98
2022-08-23T22:36:43.219Z,20.93
2022-08-23T22:39:12.511Z,20.88
2022-08-23T22:41:40.143Z,20.81
2022-08-23T22:44:07.291Z,20.77
2022-08-23T22:46:35.317Z,20.77
2022-08-23T22:49:02.736Z,20.73
2022-08-23T22:51:32.755Z,20.69
2022-08-23T22:54:02.697Z,20.64
2022-08-23T22:56:42.768Z,20.58
2022-08-23T22:59:10.566Z,20.53
2022-08-23T23:01:44.245Z,20.49
2022-08-23T23:04:14.419Z,20.42
2022-08-23T23:06:42.051Z,20.42
2022-08-23T23:09:10.952Z,20.42
2022-08-23T23:11:40.183Z,20.41
2022-08-23T23:14:08.840Z,20.41
2022-08-23T23:16:36.513Z,20.36
2022-08-23T23:19:22.122Z,20.35
2022-08-23T23:21:52.499Z,20.38
2022-08-23T23:24:21.502Z,20.33
2022-08-23T23:26:48.650Z,20.34
2022-08-23T23:29:16.885Z,20.35
2022-08-23T23:31:43.980Z,20.34
2022-08-23T23:34:11.114Z,20.39
2022-08-23T23:36:38.820Z,20.35
2022-08-23T23:39:08.687Z,20.39
2022-08-23T23:41:35.981Z,20.34
2022-08-23T23:44:03.535Z,20.27
2022-08-23T23:46:30.694Z,20.15
2022-08-23T23:48:57.831Z,20.14
2022-08-23T23:51:28.178Z,20.15
2022-08-23T23:53:56.101Z,20.14
2022-08-23T23:56:25.699Z,20.15
2022-08-23T23:58:54.383Z,20.18
